sensor_id;sensor_type;location;lat;lon;timestamp;P1;P2;P0
64114;PMS5003;62188;35.640;139.748;2023-01-31T00:00:21;6;5;
64114;PMS5003;62188;35.640;139.748;2023-01-31T00:02:47;4;4;
64114;PMS5003;62188;35.640;139.748;2023-01-31T00:05:13;4;3;
64114;PMS5003;62188;35.640;139.748;2023-01-31T00:07:39;4;4;
64114;PMS5003;62188;35.640;139.748;2023-01-31T00:10:04;5;4;
64114;PMS5003;62188;35.640;139.748;2023-01-31T00:12:30;5;5;
64114;PMS5003;62188;35.640;139.748;2023-01-31T00:14:56;5;5;
64114;PMS5003;62188;35.640;139.748;2023-01-31T00:17:21;5;4;
64114;PMS5003;62188;35.640;139.748;2023-01-31T00:19:47;4;4;
64114;PMS5003;62188;35.640;139.748;2023-01-31T00:22:13;3;2;
64114;PMS5003;62188;35.640;139.748;2023-01-31T00:24:39;4;4;
64114;PMS5003;62188;35.640;139.748;2023-01-31T00:27:05;3;3;
64114;PMS5003;62188;35.640;139.748;2023-01-31T00:29:30;3;3;
64114;PMS5003;62188;35.640;139.748;2023-01-31T00:31:56;6;6;
64114;PMS5003;62188;35.640;139.748;2023-01-31T00:34:21;5;5;
64114;PMS5003;62188;35.640;139.748;2023-01-31T00:36:47;4;4;
64114;PMS5003;62188;35.640;139.748;2023-01-31T00:39:13;5;4;
64114;PMS5003;62188;35.640;139.748;2023-01-31T00:41:39;2;2;
64114;PMS5003;62188;35.640;139.748;2023-01-31T00:44:05;4;3;
64114;PMS5003;62188;35.640;139.748;2023-01-31T00:46:30;4;3;
64114;PMS5003;62188;35.640;139.748;2023-01-31T00:48:56;4;4;
64114;PMS5003;62188;35.640;139.748;2023-01-31T00:51:22;3;3;
64114;PMS5003;62188;35.640;139.748;2023-01-31T00:53:48;4;4;
64114;PMS5003;62188;35.640;139.748;2023-01-31T00:56:14;4;4;
64114;PMS5003;62188;35.640;139.748;2023-01-31T00:58:39;5;5;
64114;PMS5003;62188;35.640;139.748;2023-01-31T01:01:05;4;4;
64114;PMS5003;62188;35.640;139.748;2023-01-31T01:03:30;3;3;
64114;PMS5003;62188;35.640;139.748;2023-01-31T01:05:56;3;3;
64114;PMS5003;62188;35.640;139.748;2023-01-31T01:08:21;4;3;
64114;PMS5003;62188;35.640;139.748;2023-01-31T01:10:47;4;3;
64114;PMS5003;62188;35.640;139.748;2023-01-31T01:13:13;3;3;
64114;PMS5003;62188;35.640;139.748;2023-01-31T01:15:39;3;3;
64114;PMS5003;62188;35.640;139.748;2023-01-31T01:18:04;4;4;
64114;PMS5003;62188;35.640;139.748;2023-01-31T01:20:30;4;3;
64114;PMS5003;62188;35.640;139.748;2023-01-31T01:22:55;2;2;
64114;PMS5003;62188;35.640;139.748;2023-01-31T01:25:21;4;4;
64114;PMS5003;62188;35.640;139.748;2023-01-31T01:27:47;5;5;
64114;PMS5003;62188;35.640;139.748;2023-01-31T01:30:13;4;4;
64114;PMS5003;62188;35.640;139.748;2023-01-31T01:32:38;4;4;
64114;PMS5003;62188;35.640;139.748;2023-01-31T01:35:04;4;4;
64114;PMS5003;62188;35.640;139.748;2023-01-31T01:37:29;4;4;
64114;PMS5003;62188;35.640;139.748;2023-01-31T01:39:55;4;4;
64114;PMS5003;62188;35.640;139.748;2023-01-31T01:42:21;5;5;
64114;PMS5003;62188;35.640;139.748;2023-01-31T01:44:49;4;4;
64114;PMS5003;62188;35.640;139.748;2023-01-31T01:47:14;5;5;
64114;PMS5003;62188;35.640;139.748;2023-01-31T01:49:38;4;4;
64114;PMS5003;62188;35.640;139.748;2023-01-31T01:52:04;2;2;
64114;PMS5003;62188;35.640;139.748;2023-01-31T01:54:30;4;4;
64114;PMS5003;62188;35.640;139.748;2023-01-31T01:56:55;6;6;
64114;PMS5003;62188;35.640;139.748;2023-01-31T01:59:21;7;7;
64114;PMS5003;62188;35.640;139.748;2023-01-31T02:01:46;6;5;
64114;PMS5003;62188;35.640;139.748;2023-01-31T02:04:12;6;6;
64114;PMS5003;62188;35.640;139.748;2023-01-31T02:06:38;7;7;
64114;PMS5003;62188;35.640;139.748;2023-01-31T02:09:04;7;7;
64114;PMS5003;62188;35.640;139.748;2023-01-31T02:11:29;5;4;
64114;PMS5003;62188;35.640;139.748;2023-01-31T02:13:56;5;5;
64114;PMS5003;62188;35.640;139.748;2023-01-31T02:16:20;6;6;
64114;PMS5003;62188;35.640;139.748;2023-01-31T02:18:46;4;4;
64114;PMS5003;62188;35.640;139.748;2023-01-31T02:21:23;5;4;
64114;PMS5003;62188;35.640;139.748;2023-01-31T02:33:21;4;4;
64114;PMS5003;62188;35.640;139.748;2023-01-31T02:35:49;5;4;
64114;PMS5003;62188;35.640;139.748;2023-01-31T02:38:15;4;4;
64114;PMS5003;62188;35.640;139.748;2023-01-31T02:40:39;3;3;
64114;PMS5003;62188;35.640;139.748;2023-01-31T02:43:05;4;4;
64114;PMS5003;62188;35.640;139.748;2023-01-31T02:45:33;3;3;
64114;PMS5003;62188;35.640;139.748;2023-01-31T02:48:00;4;4;
64114;PMS5003;62188;35.640;139.748;2023-01-31T02:50:23;3;3;
64114;PMS5003;62188;35.640;139.748;2023-01-31T02:52:47;3;3;
64114;PMS5003;62188;35.640;139.748;2023-01-31T02:55:13;2;2;
64114;PMS5003;62188;35.640;139.748;2023-01-31T02:57:37;4;3;
64114;PMS5003;62188;35.640;139.748;2023-01-31T03:00:03;4;4;
64114;PMS5003;62188;35.640;139.748;2023-01-31T03:02:29;4;4;
64114;PMS5003;62188;35.640;139.748;2023-01-31T03:04:54;3;3;
64114;PMS5003;62188;35.640;139.748;2023-01-31T03:07:19;3;3;
64114;PMS5003;62188;35.640;139.748;2023-01-31T03:09:48;3;3;
64114;PMS5003;62188;35.640;139.748;2023-01-31T03:14:39;4;4;
64114;PMS5003;62188;35.640;139.748;2023-01-31T03:17:03;2;2;
64114;PMS5003;62188;35.640;139.748;2023-01-31T03:19:30;4;4;
64114;PMS5003;62188;35.640;139.748;2023-01-31T03:21:54;6;4;
64114;PMS5003;62188;35.640;139.748;2023-01-31T03:24:19;3;3;
64114;PMS5003;62188;35.640;139.748;2023-01-31T03:26:45;5;5;
64114;PMS5003;62188;35.640;139.748;2023-01-31T03:29:11;4;4;
64114;PMS5003;62188;35.640;139.748;2023-01-31T03:31:36;4;4;
64114;PMS5003;62188;35.640;139.748;2023-01-31T03:34:02;6;6;
64114;PMS5003;62188;35.640;139.748;2023-01-31T03:36:28;8;7;
64114;PMS5003;62188;35.640;139.748;2023-01-31T03:38:55;7;7;
64114;PMS5003;62188;35.640;139.748;2023-01-31T03:41:20;5;5;
64114;PMS5003;62188;35.640;139.748;2023-01-31T03:43:45;4;4;
64114;PMS5003;62188;35.640;139.748;2023-01-31T03:46:11;4;3;
64114;PMS5003;62188;35.640;139.748;2023-01-31T03:48:38;5;5;
64114;PMS5003;62188;35.640;139.748;2023-01-31T03:51:03;4;3;
64114;PMS5003;62188;35.640;139.748;2023-01-31T03:53:28;6;6;
64114;PMS5003;62188;35.640;139.748;2023-01-31T03:55:53;3;3;
64114;PMS5003;62188;35.640;139.748;2023-01-31T03:58:18;5;4;
64114;PMS5003;62188;35.640;139.748;2023-01-31T04:00:43;5;4;
64114;PMS5003;62188;35.640;139.748;2023-01-31T04:03:10;5;5;
64114;PMS5003;62188;35.640;139.748;2023-01-31T04:05:35;3;3;
64114;PMS5003;62188;35.640;139.748;2023-01-31T04:08:00;6;4;
64114;PMS5003;62188;35.640;139.748;2023-01-31T04:10:26;4;4;
64114;PMS5003;62188;35.640;139.748;2023-01-31T04:12:51;4;4;
64114;PMS5003;62188;35.640;139.748;2023-01-31T04:15:17;4;3;
64114;PMS5003;62188;35.640;139.748;2023-01-31T04:17:43;4;4;
64114;PMS5003;62188;35.640;139.748;2023-01-31T04:20:09;4;4;
64114;PMS5003;62188;35.640;139.748;2023-01-31T04:22:35;4;4;
64114;PMS5003;62188;35.640;139.748;2023-01-31T04:25:06;5;4;
64114;PMS5003;62188;35.640;139.748;2023-01-31T04:27:25;4;4;
64114;PMS5003;62188;35.640;139.748;2023-01-31T04:29:51;6;5;
64114;PMS5003;62188;35.640;139.748;2023-01-31T04:32:16;4;4;
64114;PMS5003;62188;35.640;139.748;2023-01-31T04:34:42;5;5;
64114;PMS5003;62188;35.640;139.748;2023-01-31T04:37:07;5;5;
64114;PMS5003;62188;35.640;139.748;2023-01-31T04:39:32;4;4;
64114;PMS5003;62188;35.640;139.748;2023-01-31T04:41:58;4;4;
64114;PMS5003;62188;35.640;139.748;2023-01-31T04:44:24;4;4;
64114;PMS5003;62188;35.640;139.748;2023-01-31T04:46:49;5;5;
64114;PMS5003;62188;35.640;139.748;2023-01-31T04:49:15;5;5;
64114;PMS5003;62188;35.640;139.748;2023-01-31T04:51:40;4;4;
64114;PMS5003;62188;35.640;139.748;2023-01-31T04:54:06;4;4;
64114;PMS5003;62188;35.640;139.748;2023-01-31T04:56:32;6;5;
64114;PMS5003;62188;35.640;139.748;2023-01-31T04:58:57;5;5;
64114;PMS5003;62188;35.640;139.748;2023-01-31T05:01:23;6;6;
64114;PMS5003;62188;35.640;139.748;2023-01-31T05:03:49;5;5;
64114;PMS5003;62188;35.640;139.748;2023-01-31T05:06:14;5;5;
64114;PMS5003;62188;35.640;139.748;2023-01-31T05:08:40;5;5;
64114;PMS5003;62188;35.640;139.748;2023-01-31T05:11:06;5;5;
64114;PMS5003;62188;35.640;139.748;2023-01-31T05:13:32;7;6;
64114;PMS5003;62188;35.640;139.748;2023-01-31T05:15:57;5;5;
64114;PMS5003;62188;35.640;139.748;2023-01-31T05:18:22;7;5;
64114;PMS5003;62188;35.640;139.748;2023-01-31T05:20:48;6;5;
64114;PMS5003;62188;35.640;139.748;2023-01-31T05:23:13;6;6;
64114;PMS5003;62188;35.640;139.748;2023-01-31T05:25:39;6;6;
64114;PMS5003;62188;35.640;139.748;2023-01-31T05:28:05;7;6;
64114;PMS5003;62188;35.640;139.748;2023-01-31T05:30:31;7;7;
64114;PMS5003;62188;35.640;139.748;2023-01-31T05:32:56;7;6;
64114;PMS5003;62188;35.640;139.748;2023-01-31T05:35:22;8;8;
64114;PMS5003;62188;35.640;139.748;2023-01-31T05:37:47;6;6;
64114;PMS5003;62188;35.640;139.748;2023-01-31T05:40:14;6;6;
64114;PMS5003;62188;35.640;139.748;2023-01-31T05:42:39;6;6;
64114;PMS5003;62188;35.640;139.748;2023-01-31T05:45:05;6;6;
64114;PMS5003;62188;35.640;139.748;2023-01-31T05:47:31;7;7;
64114;PMS5003;62188;35.640;139.748;2023-01-31T05:49:56;5;5;
64114;PMS5003;62188;35.640;139.748;2023-01-31T05:52:22;6;6;
64114;PMS5003;62188;35.640;139.748;2023-01-31T05:54:48;8;8;
64114;PMS5003;62188;35.640;139.748;2023-01-31T05:57:13;7;7;
64114;PMS5003;62188;35.640;139.748;2023-01-31T05:59:39;6;6;
64114;PMS5003;62188;35.640;139.748;2023-01-31T06:02:05;7;6;
64114;PMS5003;62188;35.640;139.748;2023-01-31T06:04:31;7;6;
64114;PMS5003;62188;35.640;139.748;2023-01-31T06:06:56;8;7;
64114;PMS5003;62188;35.640;139.748;2023-01-31T06:09:22;8;7;
64114;PMS5003;62188;35.640;139.748;2023-01-31T06:11:48;8;8;
64114;PMS5003;62188;35.640;139.748;2023-01-31T06:14:13;7;7;
64114;PMS5003;62188;35.640;139.748;2023-01-31T06:16:39;8;8;
64114;PMS5003;62188;35.640;139.748;2023-01-31T06:19:05;7;7;
64114;PMS5003;62188;35.640;139.748;2023-01-31T06:21:31;9;8;
64114;PMS5003;62188;35.640;139.748;2023-01-31T06:23:56;7;6;
64114;PMS5003;62188;35.640;139.748;2023-01-31T06:26:22;8;8;
64114;PMS5003;62188;35.640;139.748;2023-01-31T06:28:47;8;8;
64114;PMS5003;62188;35.640;139.748;2023-01-31T06:31:13;9;9;
64114;PMS5003;62188;35.640;139.748;2023-01-31T06:33:39;10;9;
64114;PMS5003;62188;35.640;139.748;2023-01-31T06:36:05;8;8;
64114;PMS5003;62188;35.640;139.748;2023-01-31T06:38:31;8;8;
64114;PMS5003;62188;35.640;139.748;2023-01-31T06:40:56;9;9;
64114;PMS5003;62188;35.640;139.748;2023-01-31T06:43:22;7;7;
64114;PMS5003;62188;35.640;139.748;2023-01-31T06:45:47;7;7;
64114;PMS5003;62188;35.640;139.748;2023-01-31T06:48:14;9;9;
64114;PMS5003;62188;35.640;139.748;2023-01-31T06:50:39;9;9;
64114;PMS5003;62188;35.640;139.748;2023-01-31T06:53:05;6;6;
64114;PMS5003;62188;35.640;139.748;2023-01-31T06:55:30;7;7;
64114;PMS5003;62188;35.640;139.748;2023-01-31T06:57:56;8;8;
64114;PMS5003;62188;35.640;139.748;2023-01-31T07:00:22;9;8;
64114;PMS5003;62188;35.640;139.748;2023-01-31T07:02:48;7;6;
64114;PMS5003;62188;35.640;139.748;2023-01-31T07:05:14;8;8;
64114;PMS5003;62188;35.640;139.748;2023-01-31T07:07:39;9;8;
64114;PMS5003;62188;35.640;139.748;2023-01-31T07:10:05;11;9;
64114;PMS5003;62188;35.640;139.748;2023-01-31T07:12:30;9;8;
64114;PMS5003;62188;35.640;139.748;2023-01-31T07:14:56;9;9;
64114;PMS5003;62188;35.640;139.748;2023-01-31T07:17:22;9;8;
64114;PMS5003;62188;35.640;139.748;2023-01-31T07:19:47;8;8;
64114;PMS5003;62188;35.640;139.748;2023-01-31T07:22:13;8;8;
64114;PMS5003;62188;35.640;139.748;2023-01-31T07:24:39;9;8;
64114;PMS5003;62188;35.640;139.748;2023-01-31T07:27:05;7;7;
64114;PMS5003;62188;35.640;139.748;2023-01-31T07:29:31;8;7;
64114;PMS5003;62188;35.640;139.748;2023-01-31T07:31:56;8;8;
64114;PMS5003;62188;35.640;139.748;2023-01-31T07:34:22;8;7;
64114;PMS5003;62188;35.640;139.748;2023-01-31T07:36:48;7;7;
64114;PMS5003;62188;35.640;139.748;2023-01-31T07:39:13;8;5;
64114;PMS5003;62188;35.640;139.748;2023-01-31T07:41:39;7;7;
64114;PMS5003;62188;35.640;139.748;2023-01-31T07:44:05;8;8;
64114;PMS5003;62188;35.640;139.748;2023-01-31T07:46:30;6;6;
64114;PMS5003;62188;35.640;139.748;2023-01-31T07:48:56;9;9;
64114;PMS5003;62188;35.640;139.748;2023-01-31T07:51:22;7;7;
64114;PMS5003;62188;35.640;139.748;2023-01-31T07:53:48;8;8;
64114;PMS5003;62188;35.640;139.748;2023-01-31T07:56:14;6;6;
64114;PMS5003;62188;35.640;139.748;2023-01-31T07:58:40;7;6;
64114;PMS5003;62188;35.640;139.748;2023-01-31T08:01:05;6;6;
64114;PMS5003;62188;35.640;139.748;2023-01-31T08:03:31;8;7;
64114;PMS5003;62188;35.640;139.748;2023-01-31T08:05:56;6;6;
64114;PMS5003;62188;35.640;139.748;2023-01-31T08:08:22;6;5;
64114;PMS5003;62188;35.640;139.748;2023-01-31T08:10:48;5;5;
64114;PMS5003;62188;35.640;139.748;2023-01-31T08:13:13;8;8;
64114;PMS5003;62188;35.640;139.748;2023-01-31T08:15:39;5;5;
64114;PMS5003;62188;35.640;139.748;2023-01-31T08:18:05;8;7;
64114;PMS5003;62188;35.640;139.748;2023-01-31T08:20:30;8;7;
64114;PMS5003;62188;35.640;139.748;2023-01-31T08:22:56;10;9;
64114;PMS5003;62188;35.640;139.748;2023-01-31T08:25:22;8;8;
64114;PMS5003;62188;35.640;139.748;2023-01-31T08:27:48;16;13;
64114;PMS5003;62188;35.640;139.748;2023-01-31T08:30:14;8;8;
64114;PMS5003;62188;35.640;139.748;2023-01-31T08:32:39;8;8;
64114;PMS5003;62188;35.640;139.748;2023-01-31T08:35:05;10;8;
64114;PMS5003;62188;35.640;139.748;2023-01-31T08:37:31;9;8;
64114;PMS5003;62188;35.640;139.748;2023-01-31T08:39:57;8;8;
64114;PMS5003;62188;35.640;139.748;2023-01-31T08:42:22;10;9;
64114;PMS5003;62188;35.640;139.748;2023-01-31T08:44:48;8;8;
64114;PMS5003;62188;35.640;139.748;2023-01-31T08:47:14;8;8;
64114;PMS5003;62188;35.640;139.748;2023-01-31T08:49:39;8;8;
64114;PMS5003;62188;35.640;139.748;2023-01-31T08:52:05;8;7;
64114;PMS5003;62188;35.640;139.748;2023-01-31T08:54:31;11;10;
64114;PMS5003;62188;35.640;139.748;2023-01-31T08:56:56;11;10;
64114;PMS5003;62188;35.640;139.748;2023-01-31T08:59:22;16;15;
64114;PMS5003;62188;35.640;139.748;2023-01-31T09:01:48;11;11;
64114;PMS5003;62188;35.640;139.748;2023-01-31T09:04:13;11;11;
64114;PMS5003;62188;35.640;139.748;2023-01-31T09:06:39;12;11;
64114;PMS5003;62188;35.640;139.748;2023-01-31T09:09:05;11;10;
64114;PMS5003;62188;35.640;139.748;2023-01-31T09:11:30;10;9;
64114;PMS5003;62188;35.640;139.748;2023-01-31T09:13:56;8;7;
64114;PMS5003;62188;35.640;139.748;2023-01-31T09:16:22;9;9;
64114;PMS5003;62188;35.640;139.748;2023-01-31T09:18:48;9;8;
64114;PMS5003;62188;35.640;139.748;2023-01-31T09:21:14;5;5;
64114;PMS5003;62188;35.640;139.748;2023-01-31T09:23:39;9;8;
64114;PMS5003;62188;35.640;139.748;2023-01-31T09:26:05;8;7;
64114;PMS5003;62188;35.640;139.748;2023-01-31T09:28:31;8;8;
64114;PMS5003;62188;35.640;139.748;2023-01-31T09:31:01;8;8;
64114;PMS5003;62188;35.640;139.748;2023-01-31T09:33:27;7;7;
64114;PMS5003;62188;35.640;139.748;2023-01-31T09:35:56;8;7;
64114;PMS5003;62188;35.640;139.748;2023-01-31T09:38:13;8;8;
64114;PMS5003;62188;35.640;139.748;2023-01-31T09:40:39;9;9;
64114;PMS5003;62188;35.640;139.748;2023-01-31T09:43:05;7;7;
64114;PMS5003;62188;35.640;139.748;2023-01-31T09:45:31;8;7;
64114;PMS5003;62188;35.640;139.748;2023-01-31T09:47:57;8;7;
64114;PMS5003;62188;35.640;139.748;2023-01-31T09:50:25;8;7;
64114;PMS5003;62188;35.640;139.748;2023-01-31T09:52:48;7;6;
64114;PMS5003;62188;35.640;139.748;2023-01-31T09:55:15;7;7;
64114;PMS5003;62188;35.640;139.748;2023-01-31T09:57:41;7;7;
64114;PMS5003;62188;35.640;139.748;2023-01-31T10:00:09;9;8;
64114;PMS5003;62188;35.640;139.748;2023-01-31T10:04:59;8;8;
64114;PMS5003;62188;35.640;139.748;2023-01-31T10:07:23;7;7;
64114;PMS5003;62188;35.640;139.748;2023-01-31T10:09:48;9;7;
64114;PMS5003;62188;35.640;139.748;2023-01-31T10:12:13;8;7;
64114;PMS5003;62188;35.640;139.748;2023-01-31T10:14:40;8;7;
64114;PMS5003;62188;35.640;139.748;2023-01-31T10:17:06;11;11;
64114;PMS5003;62188;35.640;139.748;2023-01-31T10:19:31;12;11;
64114;PMS5003;62188;35.640;139.748;2023-01-31T10:21:57;12;11;
64114;PMS5003;62188;35.640;139.748;2023-01-31T10:24:22;12;11;
64114;PMS5003;62188;35.640;139.748;2023-01-31T10:26:47;11;11;
64114;PMS5003;62188;35.640;139.748;2023-01-31T10:29:14;9;9;
64114;PMS5003;62188;35.640;139.748;2023-01-31T10:31:39;10;9;
64114;PMS5003;62188;35.640;139.748;2023-01-31T10:34:05;9;9;
64114;PMS5003;62188;35.640;139.748;2023-01-31T10:36:31;10;10;
64114;PMS5003;62188;35.640;139.748;2023-01-31T10:38:57;8;8;
64114;PMS5003;62188;35.640;139.748;2023-01-31T10:41:24;8;8;
64114;PMS5003;62188;35.640;139.748;2023-01-31T10:43:48;9;8;
64114;PMS5003;62188;35.640;139.748;2023-01-31T10:46:12;8;8;
64114;PMS5003;62188;35.640;139.748;2023-01-31T10:48:38;9;8;
64114;PMS5003;62188;35.640;139.748;2023-01-31T10:51:06;7;7;
64114;PMS5003;62188;35.640;139.748;2023-01-31T10:53:37;11;9;
64114;PMS5003;62188;35.640;139.748;2023-01-31T10:55:58;8;8;
64114;PMS5003;62188;35.640;139.748;2023-01-31T10:58:21;9;9;
64114;PMS5003;62188;35.640;139.748;2023-01-31T11:00:46;12;12;
64114;PMS5003;62188;35.640;139.748;2023-01-31T11:03:13;10;9;
64114;PMS5003;62188;35.640;139.748;2023-01-31T11:05:38;11;11;
64114;PMS5003;62188;35.640;139.748;2023-01-31T11:08:05;16;14;
64114;PMS5003;62188;35.640;139.748;2023-01-31T11:10:30;10;10;
64114;PMS5003;62188;35.640;139.748;2023-01-31T11:12:56;11;11;
64114;PMS5003;62188;35.640;139.748;2023-01-31T11:15:23;13;13;
64114;PMS5003;62188;35.640;139.748;2023-01-31T11:17:46;15;13;
64114;PMS5003;62188;35.640;139.748;2023-01-31T11:20:19;16;15;
64114;PMS5003;62188;35.640;139.748;2023-01-31T11:22:39;12;12;
64114;PMS5003;62188;35.640;139.748;2023-01-31T11:25:05;14;12;
64114;PMS5003;62188;35.640;139.748;2023-01-31T11:27:32;11;11;
64114;PMS5003;62188;35.640;139.748;2023-01-31T11:29:55;14;13;
64114;PMS5003;62188;35.640;139.748;2023-01-31T11:32:22;16;15;
64114;PMS5003;62188;35.640;139.748;2023-01-31T11:37:13;14;12;
64114;PMS5003;62188;35.640;139.748;2023-01-31T11:39:38;18;17;
64114;PMS5003;62188;35.640;139.748;2023-01-31T11:42:05;16;16;
64114;PMS5003;62188;35.640;139.748;2023-01-31T11:44:30;14;13;
64114;PMS5003;62188;35.640;139.748;2023-01-31T11:46:56;16;15;
64114;PMS5003;62188;35.640;139.748;2023-01-31T11:49:27;14;13;
64114;PMS5003;62188;35.640;139.748;2023-01-31T11:51:47;14;14;
64114;PMS5003;62188;35.640;139.748;2023-01-31T11:54:14;15;15;
64114;PMS5003;62188;35.640;139.748;2023-01-31T11:56:37;13;12;
64114;PMS5003;62188;35.640;139.748;2023-01-31T11:59:04;17;16;
64114;PMS5003;62188;35.640;139.748;2023-01-31T12:01:29;16;14;
64114;PMS5003;62188;35.640;139.748;2023-01-31T12:03:55;14;14;
64114;PMS5003;62188;35.640;139.748;2023-01-31T12:06:27;22;20;
64114;PMS5003;62188;35.640;139.748;2023-01-31T12:08:46;21;21;
64114;PMS5003;62188;35.640;139.748;2023-01-31T12:16:03;21;19;
64114;PMS5003;62188;35.640;139.748;2023-01-31T12:18:33;19;19;
64114;PMS5003;62188;35.640;139.748;2023-01-31T12:20:56;17;17;
64114;PMS5003;62188;35.640;139.748;2023-01-31T12:23:24;19;18;
64114;PMS5003;62188;35.640;139.748;2023-01-31T12:25:49;21;20;
64114;PMS5003;62188;35.640;139.748;2023-01-31T12:28:15;17;15;
64114;PMS5003;62188;35.640;139.748;2023-01-31T12:30:42;17;15;
64114;PMS5003;62188;35.640;139.748;2023-01-31T12:33:07;17;15;
64114;PMS5003;62188;35.640;139.748;2023-01-31T12:35:31;16;15;
64114;PMS5003;62188;35.640;139.748;2023-01-31T12:37:56;18;18;
64114;PMS5003;62188;35.640;139.748;2023-01-31T12:40:24;23;22;
64114;PMS5003;62188;35.640;139.748;2023-01-31T12:42:49;17;15;
64114;PMS5003;62188;35.640;139.748;2023-01-31T12:45:15;17;15;
64114;PMS5003;62188;35.640;139.748;2023-01-31T12:47:42;13;13;
64114;PMS5003;62188;35.640;139.748;2023-01-31T12:52:30;12;11;
64114;PMS5003;62188;35.640;139.748;2023-01-31T12:54:58;11;11;
64114;PMS5003;62188;35.640;139.748;2023-01-31T12:57:23;11;10;
64114;PMS5003;62188;35.640;139.748;2023-01-31T12:59:46;9;9;
64114;PMS5003;62188;35.640;139.748;2023-01-31T13:02:13;9;9;
64114;PMS5003;62188;35.640;139.748;2023-01-31T13:04:38;9;9;
64114;PMS5003;62188;35.640;139.748;2023-01-31T13:07:02;10;9;
64114;PMS5003;62188;35.640;139.748;2023-01-31T13:09:29;11;11;
64114;PMS5003;62188;35.640;139.748;2023-01-31T13:11:55;12;11;
64114;PMS5003;62188;35.640;139.748;2023-01-31T13:14:20;10;9;
64114;PMS5003;62188;35.640;139.748;2023-01-31T13:16:45;10;10;
64114;PMS5003;62188;35.640;139.748;2023-01-31T13:19:12;9;9;
64114;PMS5003;62188;35.640;139.748;2023-01-31T13:21:38;10;9;
64114;PMS5003;62188;35.640;139.748;2023-01-31T13:24:03;12;11;
64114;PMS5003;62188;35.640;139.748;2023-01-31T13:26:30;10;10;
64114;PMS5003;62188;35.640;139.748;2023-01-31T13:28:56;12;11;
64114;PMS5003;62188;35.640;139.748;2023-01-31T13:31:21;14;12;
64114;PMS5003;62188;35.640;139.748;2023-01-31T13:33:46;16;13;
64114;PMS5003;62188;35.640;139.748;2023-01-31T13:36:15;11;11;
64114;PMS5003;62188;35.640;139.748;2023-01-31T13:38:37;11;10;
64114;PMS5003;62188;35.640;139.748;2023-01-31T13:41:02;12;12;
64114;PMS5003;62188;35.640;139.748;2023-01-31T13:43:28;12;12;
64114;PMS5003;62188;35.640;139.748;2023-01-31T13:45:55;14;13;
64114;PMS5003;62188;35.640;139.748;2023-01-31T13:48:22;13;13;
64114;PMS5003;62188;35.640;139.748;2023-01-31T13:50:46;13;13;
64114;PMS5003;62188;35.640;139.748;2023-01-31T13:53:12;16;15;
64114;PMS5003;62188;35.640;139.748;2023-01-31T13:55:37;14;12;
64114;PMS5003;62188;35.640;139.748;2023-01-31T13:58:03;13;13;
64114;PMS5003;62188;35.640;139.748;2023-01-31T14:00:32;16;14;
64114;PMS5003;62188;35.640;139.748;2023-01-31T14:02:59;15;14;
64114;PMS5003;62188;35.640;139.748;2023-01-31T14:07:45;18;17;
64114;PMS5003;62188;35.640;139.748;2023-01-31T14:12:37;22;18;
64114;PMS5003;62188;35.640;139.748;2023-01-31T14:22:20;18;18;
64114;PMS5003;62188;35.640;139.748;2023-01-31T14:27:11;20;18;
64114;PMS5003;62188;35.640;139.748;2023-01-31T14:29:40;20;18;
64114;PMS5003;62188;35.640;139.748;2023-01-31T14:32:04;18;17;
64114;PMS5003;62188;35.640;139.748;2023-01-31T14:34:28;17;17;
64114;PMS5003;62188;35.640;139.748;2023-01-31T14:36:57;17;16;
64114;PMS5003;62188;35.640;139.748;2023-01-31T14:39:24;22;21;
64114;PMS5003;62188;35.640;139.748;2023-01-31T14:44:14;19;18;
64114;PMS5003;62188;35.640;139.748;2023-01-31T14:51:29;17;16;
64114;PMS5003;62188;35.640;139.748;2023-01-31T14:54:00;19;16;
64114;PMS5003;62188;35.640;139.748;2023-01-31T14:56:22;11;11;
64114;PMS5003;62188;35.640;139.748;2023-01-31T14:58:45;14;13;
64114;PMS5003;62188;35.640;139.748;2023-01-31T15:01:11;12;11;
64114;PMS5003;62188;35.640;139.748;2023-01-31T15:03:37;19;18;
64114;PMS5003;62188;35.640;139.748;2023-01-31T15:06:07;18;17;
64114;PMS5003;62188;35.640;139.748;2023-01-31T15:08:36;13;13;
64114;PMS5003;62188;35.640;139.748;2023-01-31T15:10:56;24;22;
64114;PMS5003;62188;35.640;139.748;2023-01-31T15:15:44;17;16;
64114;PMS5003;62188;35.640;139.748;2023-01-31T15:18:12;13;11;
64114;PMS5003;62188;35.640;139.748;2023-01-31T15:20:39;12;12;
64114;PMS5003;62188;35.640;139.748;2023-01-31T15:23:03;14;13;
64114;PMS5003;62188;35.640;139.748;2023-01-31T15:25:33;13;12;
64114;PMS5003;62188;35.640;139.748;2023-01-31T15:27:53;13;12;
64114;PMS5003;62188;35.640;139.748;2023-01-31T15:30:19;18;17;
64114;PMS5003;62188;35.640;139.748;2023-01-31T15:32:47;13;13;
64114;PMS5003;62188;35.640;139.748;2023-01-31T15:35:13;36;35;
64114;PMS5003;62188;35.640;139.748;2023-01-31T15:37:36;25;24;
64114;PMS5003;62188;35.640;139.748;2023-01-31T15:40:03;17;15;
64114;PMS5003;62188;35.640;139.748;2023-01-31T15:42:28;27;26;
64114;PMS5003;62188;35.640;139.748;2023-01-31T15:47:20;25;24;
64114;PMS5003;62188;35.640;139.748;2023-01-31T15:49:43;23;21;
64114;PMS5003;62188;35.640;139.748;2023-01-31T15:52:11;13;12;
64114;PMS5003;62188;35.640;139.748;2023-01-31T15:54:34;13;12;
64114;PMS5003;62188;35.640;139.748;2023-01-31T15:57:00;9;9;
64114;PMS5003;62188;35.640;139.748;2023-01-31T15:59:27;23;23;
64114;PMS5003;62188;35.640;139.748;2023-01-31T16:01:51;13;12;
64114;PMS5003;62188;35.640;139.748;2023-01-31T16:04:17;14;14;
64114;PMS5003;62188;35.640;139.748;2023-01-31T16:06:44;15;14;
64114;PMS5003;62188;35.640;139.748;2023-01-31T16:11:34;34;32;
64114;PMS5003;62188;35.640;139.748;2023-01-31T16:14:00;22;20;
64114;PMS5003;62188;35.640;139.748;2023-01-31T16:16:25;25;25;
64114;PMS5003;62188;35.640;139.748;2023-01-31T16:18:51;35;31;
64114;PMS5003;62188;35.640;139.748;2023-01-31T16:23:41;24;23;
64114;PMS5003;62188;35.640;139.748;2023-01-31T16:26:08;33;29;
64114;PMS5003;62188;35.640;139.748;2023-01-31T16:28:36;27;25;
64114;PMS5003;62188;35.640;139.748;2023-01-31T16:33:23;24;24;
64114;PMS5003;62188;35.640;139.748;2023-01-31T16:35:59;18;17;
64114;PMS5003;62188;35.640;139.748;2023-01-31T16:38:17;22;21;
64114;PMS5003;62188;35.640;139.748;2023-01-31T16:40:43;30;25;
64114;PMS5003;62188;35.640;139.748;2023-01-31T16:43:09;44;42;
64114;PMS5003;62188;35.640;139.748;2023-01-31T16:45:31;35;34;
64114;PMS5003;62188;35.640;139.748;2023-01-31T16:50:27;9;9;
64114;PMS5003;62188;35.640;139.748;2023-01-31T16:52:48;12;10;
64114;PMS5003;62188;35.640;139.748;2023-01-31T16:55:14;11;11;